Wind From: 10-12-2017 19:04 Until: 11-12-2017 16:00 warning for: Wind Level: Orange info button

Power and phone distribution networks may be disrupted for relatively long periods., Roofs and chimneys can be damaged. , Tree branches may break. , Vehicles can be deported. , Traffic may be disrupted, particularly on secondary roads in forest areas. Limit your trips. , Limit your speed in highway driving, especially if you drive a vehicle or hitch sensitive to wind. , Do not go for walks in forests or along the coast., In town, be vigilant against possible falling objects., Do not work on roofs and do not touch any electrical line fallen on the ground., Store or secure sensitive objects to wind or likely to be damaged., Always install power generators outside buildings. 


Meteo18 Weather Cam more information Meteo18 Weather Cam


Thunder radar more information blitzortung!


Rain radar more information rain snow radar


Visit our other weather sites:

Template documentation
and downloads

And another site



Weather Underground History page Text

Daily Summary for August 13, 2017 Units:  Both    English   Metric
« Previous Day
Next Day »
Daily Weekly Monthly Yearly Custom
  High: Low: Average:
Temperature: 74.1 °F /  23.4 °C 59.9 °F /  15.5 °C 65.7 °F /  18.7 °C
Dew Point: 60.8 °F /  16.0 °C 55.6 °F /  13.1 °C 58.6 °F /  14.8 °C
Humidity: 96 % 56 % 79 %
Wind Speed: 7 mph /  11.3 km/h - 1.7 mph /  2.8 km/h
Wind Gust: 10 mph /  16.1 km/h - -
Wind:- - SSW
Pressure: 30.2 in /  1023.2 hPa 30.2 in /  1020.9 hPa -
Precipitation: 0.02 in /  0.5 mm    
Historical Graphs
 
 
Tabular Data for August 13, 2017
Time Temperature Dew Point Pressure Wind Wind Speed Wind Gust Humidity Rainfall Rate (Hourly)
00:02 64.9 °F /  18.3 °C 58.6 °F /  14.8 °C 30.2 in /  1022.6 hPa SW 2 mph /  3.2 km/h 4 mph /  6.4 km/h 80 % 0 in /  0.0 mm
00:12 64.8 °F /  18.2 °C 58.8 °F /  14.9 °C 30.2 in /  1022.6 hPa SSW 2 mph /  3.2 km/h 4 mph /  6.4 km/h 81 % 0 in /  0.0 mm
00:17 64.8 °F /  18.2 °C 58.8 °F /  14.9 °C 30.2 in /  1022.6 hPa SW 3 mph /  4.8 km/h 4 mph /  6.4 km/h 81 % 0 in /  0.0 mm
00:22 64.8 °F /  18.2 °C 58.8 °F /  14.9 °C 30.2 in /  1022.6 hPa SW 3 mph /  4.8 km/h 4 mph /  6.4 km/h 81 % 0 in /  0.0 mm
00:27 64.8 °F /  18.2 °C 58.8 °F /  14.9 °C 30.2 in /  1022.6 hPa SW 2 mph /  3.2 km/h 5 mph /  8.0 km/h 81 % 0 in /  0.0 mm
00:32 64.6 °F /  18.1 °C 58.6 °F /  14.8 °C 30.2 in /  1022.6 hPa SSW 1 mph /  1.6 km/h 5 mph /  8.0 km/h 81 % 0 in /  0.0 mm
00:37 64.6 °F /  18.1 °C 59 °F /  15.0 °C 30.2 in /  1022.6 hPa SW 2 mph /  3.2 km/h 6 mph /  9.7 km/h 82 % 0 in /  0.0 mm
00:42 64.6 °F /  18.1 °C 59 °F /  15.0 °C 30.2 in /  1022.6 hPa SSW 2 mph /  3.2 km/h 6 mph /  9.7 km/h 82 % 0 in /  0.0 mm
00:47 64.6 °F /  18.1 °C 59 °F /  15.0 °C 30.2 in /  1022.6 hPa SW 1 mph /  1.6 km/h 6 mph /  9.7 km/h 82 % 0 in /  0.0 mm
00:52 64.4 °F /  18.0 °C 58.8 °F /  14.9 °C 30.2 in /  1022.6 hPa SW 1 mph /  1.6 km/h 4 mph /  6.4 km/h 82 % 0 in /  0.0 mm
00:57 64.4 °F /  18.0 °C 58.8 °F /  14.9 °C 30.2 in /  1022.6 hPa WSW 2 mph /  3.2 km/h 4 mph /  6.4 km/h 82 % 0 in /  0.0 mm
01:02 64.4 °F /  18.0 °C 58.8 °F /  14.9 °C 30.2 in /  1022.6 hPa WSW 2 mph /  3.2 km/h 3 mph /  4.8 km/h 82 % 0 in /  0.0 mm
01:07 64.4 °F /  18.0 °C 58.8 °F /  14.9 °C 30.2 in /  1022.6 hPa SW 2 mph /  3.2 km/h 3 mph /  4.8 km/h 82 % 0 in /  0.0 mm
01:12 64.4 °F /  18.0 °C 58.8 °F /  14.9 °C 30.2 in /  1022.6 hPa Calm   3 mph /  4.8 km/h 82 % 0 in /  0.0 mm
01:17 64.2 °F /  17.9 °C 58.6 °F /  14.8 °C 30.2 in /  1022.6 hPa SSW 1 mph /  1.6 km/h 3 mph /  4.8 km/h 82 % 0 in /  0.0 mm
01:22 64.2 °F /  17.9 °C 59 °F /  15.0 °C 30.2 in /  1022.6 hPa SW 1 mph /  1.6 km/h 3 mph /  4.8 km/h 83 % 0 in /  0.0 mm
01:32 64 °F /  17.8 °C 59.2 °F /  15.1 °C 30.2 in /  1022.6 hPa Calm   2 mph /  3.2 km/h 84 % 0 in /  0.0 mm
01:37 64 °F /  17.8 °C 59.2 °F /  15.1 °C 30.2 in /  1022.6 hPa Calm   2 mph /  3.2 km/h 84 % 0 in /  0.0 mm
01:42 64 °F /  17.8 °C 59.2 °F /  15.1 °C 30.2 in /  1022.6 hPa Calm   4 mph /  6.4 km/h 84 % 0 in /  0.0 mm
01:52 64.2 °F /  17.9 °C 59.4 °F /  15.2 °C 30.2 in /  1022.2 hPa West 2 mph /  3.2 km/h 5 mph /  8.0 km/h 84 % 0 in /  0.0 mm
02:02 64.2 °F /  17.9 °C 59.5 °F /  15.3 °C 30.2 in /  1022.2 hPa West 2 mph /  3.2 km/h 5 mph /  8.0 km/h 85 % 0 in /  0.0 mm
02:07 64.2 °F /  17.9 °C 59.5 °F /  15.3 °C 30.2 in /  1022.2 hPa WSW 1 mph /  1.6 km/h 4 mph /  6.4 km/h 85 % 0 in /  0.0 mm
02:12 64.2 °F /  17.9 °C 59.5 °F /  15.3 °C 30.2 in /  1022.2 hPa Calm   4 mph /  6.4 km/h 85 % 0 in /  0.0 mm
02:17 64 °F /  17.8 °C 59.4 °F /  15.2 °C 30.2 in /  1022.2 hPa West 1 mph /  1.6 km/h 4 mph /  6.4 km/h 85 % 0 in /  0.0 mm
02:22 64 °F /  17.8 °C 59.7 °F /  15.4 °C 30.2 in /  1022.2 hPa Calm   3 mph /  4.8 km/h 86 % 0 in /  0.0 mm
02:27 64 °F /  17.8 °C 59.7 °F /  15.4 °C 30.2 in /  1022.2 hPa Calm   2 mph /  3.2 km/h 86 % 0 in /  0.0 mm
02:32 63.9 °F /  17.7 °C 59.5 °F /  15.3 °C 30.2 in /  1022.2 hPa Calm   2 mph /  3.2 km/h 86 % 0 in /  0.0 mm
02:37 63.9 °F /  17.7 °C 59.5 °F /  15.3 °C 30.2 in /  1022.2 hPa Calm   2 mph /  3.2 km/h 86 % 0 in /  0.0 mm
02:42 63.9 °F /  17.7 °C 59.5 °F /  15.3 °C 30.2 in /  1022.2 hPa SW 2 mph /  3.2 km/h 2 mph /  3.2 km/h 86 % 0 in /  0.0 mm
02:47 63.9 °F /  17.7 °C 59.5 °F /  15.3 °C 30.2 in /  1022.2 hPa SW 1 mph /  1.6 km/h 4 mph /  6.4 km/h 86 % 0 in /  0.0 mm
02:52 63.9 °F /  17.7 °C 59.9 °F /  15.5 °C 30.2 in /  1022.2 hPa SW 2 mph /  3.2 km/h 4 mph /  6.4 km/h 87 % 0 in /  0.0 mm
02:57 63.7 °F /  17.6 °C 59.7 °F /  15.4 °C 30.2 in /  1021.9 hPa SW 4 mph /  6.4 km/h 4 mph /  6.4 km/h 87 % 0 in /  0.0 mm
03:02 63.9 °F /  17.7 °C 59.9 °F /  15.5 °C 30.2 in /  1021.9 hPa SW 2 mph /  3.2 km/h 4 mph /  6.4 km/h 87 % 0 in /  0.0 mm
03:12 63.9 °F /  17.7 °C 59.9 °F /  15.5 °C 30.2 in /  1021.9 hPa West 4 mph /  6.4 km/h 5 mph /  8.0 km/h 87 % 0 in /  0.0 mm
03:17 64 °F /  17.8 °C 59.7 °F /  15.4 °C 30.2 in /  1021.9 hPa West 4 mph /  6.4 km/h 6 mph /  9.7 km/h 86 % 0 in /  0.0 mm
03:22 64 °F /  17.8 °C 59.7 °F /  15.4 °C 30.2 in /  1021.9 hPa WSW 2 mph /  3.2 km/h 6 mph /  9.7 km/h 86 % 0 in /  0.0 mm
03:32 63.9 °F /  17.7 °C 59.9 °F /  15.5 °C 30.2 in /  1021.9 hPa West 1 mph /  1.6 km/h 5 mph /  8.0 km/h 87 % 0 in /  0.0 mm
03:37 63.9 °F /  17.7 °C 59.9 °F /  15.5 °C 30.2 in /  1021.9 hPa WSW 4 mph /  6.4 km/h 5 mph /  8.0 km/h 87 % 0 in /  0.0 mm
03:42 63.7 °F /  17.6 °C 59.7 °F /  15.4 °C 30.2 in /  1021.9 hPa SW 2 mph /  3.2 km/h 5 mph /  8.0 km/h 87 % 0 in /  0.0 mm
03:47 63.7 °F /  17.6 °C 59.7 °F /  15.4 °C 30.2 in /  1021.9 hPa WSW 2 mph /  3.2 km/h 5 mph /  8.0 km/h 87 % 0 in /  0.0 mm
03:52 63.5 °F /  17.5 °C 59.5 °F /  15.3 °C 30.2 in /  1021.9 hPa SSW 1 mph /  1.6 km/h 4 mph /  6.4 km/h 87 % 0 in /  0.0 mm
03:57 63.3 °F /  17.4 °C 59.4 °F /  15.2 °C 30.2 in /  1021.9 hPa SW 3 mph /  4.8 km/h 4 mph /  6.4 km/h 87 % 0 in /  0.0 mm
04:02 63.1 °F /  17.3 °C 59.5 °F /  15.3 °C 30.2 in /  1021.9 hPa SW 4 mph /  6.4 km/h 4 mph /  6.4 km/h 88 % 0 in /  0.0 mm
04:07 63 °F /  17.2 °C 59.4 °F /  15.2 °C 30.2 in /  1021.9 hPa SW 3 mph /  4.8 km/h 5 mph /  8.0 km/h 88 % 0 in /  0.0 mm
04:12 63 °F /  17.2 °C 59.4 °F /  15.2 °C 30.2 in /  1021.6 hPa SSW 2 mph /  3.2 km/h 5 mph /  8.0 km/h 88 % 0 in /  0.0 mm
04:17 63.1 °F /  17.3 °C 59.5 °F /  15.3 °C 30.2 in /  1021.6 hPa SW 2 mph /  3.2 km/h 6 mph /  9.7 km/h 88 % 0 in /  0.0 mm
04:22 63.1 °F /  17.3 °C 59.5 °F /  15.3 °C 30.2 in /  1021.9 hPa SW 1 mph /  1.6 km/h 6 mph /  9.7 km/h 88 % 0 in /  0.0 mm
04:27 63.1 °F /  17.3 °C 59.5 °F /  15.3 °C 30.2 in /  1021.6 hPa SSW 1 mph /  1.6 km/h 6 mph /  9.7 km/h 88 % 0 in /  0.0 mm
04:32 63.1 °F /  17.3 °C 59.9 °F /  15.5 °C 30.2 in /  1021.6 hPa SW 1 mph /  1.6 km/h 6 mph /  9.7 km/h 89 % 0 in /  0.0 mm
04:37 63 °F /  17.2 °C 59.7 °F /  15.4 °C 30.2 in /  1021.6 hPa WSW 2 mph /  3.2 km/h 6 mph /  9.7 km/h 89 % 0 in /  0.0 mm
04:42 63 °F /  17.2 °C 59.7 °F /  15.4 °C 30.2 in /  1021.6 hPa SW 2 mph /  3.2 km/h 6 mph /  9.7 km/h 89 % 0 in /  0.0 mm
04:47 63 °F /  17.2 °C 59.9 °F /  15.5 °C 30.2 in /  1021.6 hPa SSW 1 mph /  1.6 km/h 4 mph /  6.4 km/h 90 % 0 in /  0.0 mm
04:52 62.8 °F /  17.1 °C 59.7 °F /  15.4 °C 30.2 in /  1021.6 hPa Calm   4 mph /  6.4 km/h 90 % 0 in /  0.0 mm
04:57 62.6 °F /  17.0 °C 59.9 °F /  15.5 °C 30.2 in /  1021.6 hPa Calm   4 mph /  6.4 km/h 91 % 0 in /  0.0 mm
05:02 62.6 °F /  17.0 °C 59.9 °F /  15.5 °C 30.2 in /  1021.6 hPa Calm   3 mph /  4.8 km/h 91 % 0 in /  0.0 mm
05:12 62.4 °F /  16.9 °C 59.7 °F /  15.4 °C 30.2 in /  1021.6 hPa Calm   1 mph /  1.6 km/h 91 % 0 in /  0.0 mm
05:22 62.4 °F /  16.9 °C 59.7 °F /  15.4 °C 30.2 in /  1021.6 hPa Calm   1 mph /  1.6 km/h 91 % 0 in /  0.0 mm
05:32 62.2 °F /  16.8 °C 59.9 °F /  15.5 °C 30.2 in /  1021.6 hPa Calm     92 % 0 in /  0.0 mm
05:37 62.2 °F /  16.8 °C 59.9 °F /  15.5 °C 30.2 in /  1021.6 hPa Calm     92 % 0 in /  0.0 mm
05:42 62.2 °F /  16.8 °C 59.9 °F /  15.5 °C 30.2 in /  1021.6 hPa Calm     92 % 0 in /  0.0 mm
05:47 62.2 °F /  16.8 °C 59.9 °F /  15.5 °C 30.2 in /  1021.6 hPa Calm     92 % 0 in /  0.0 mm
05:52 62.2 °F /  16.8 °C 59.9 °F /  15.5 °C 30.2 in /  1021.6 hPa WNW 2 mph /  3.2 km/h   92 % 0 in /  0.0 mm
05:57 62.2 °F /  16.8 °C 60.3 °F /  15.7 °C 30.2 in /  1021.6 hPa Calm   3 mph /  4.8 km/h 93 % 0 in /  0.0 mm
06:02 62.4 °F /  16.9 °C 60.4 °F /  15.8 °C 30.2 in /  1021.6 hPa West 3 mph /  4.8 km/h 3 mph /  4.8 km/h 93 % 0 in /  0.0 mm
06:12 62.2 °F /  16.8 °C 60.3 °F /  15.7 °C 30.2 in /  1021.6 hPa WSW 1 mph /  1.6 km/h 4 mph /  6.4 km/h 93 % 0 in /  0.0 mm
06:17 62.2 °F /  16.8 °C 60.3 °F /  15.7 °C 30.2 in /  1021.6 hPa WSW 3 mph /  4.8 km/h 4 mph /  6.4 km/h 93 % 0 in /  0.0 mm
06:22 62.2 °F /  16.8 °C 60.3 °F /  15.7 °C 30.2 in /  1021.6 hPa West 2 mph /  3.2 km/h 4 mph /  6.4 km/h 93 % 0 in /  0.0 mm
06:32 62.1 °F /  16.7 °C 60.3 °F /  15.7 °C 30.2 in /  1021.6 hPa West 1 mph /  1.6 km/h 5 mph /  8.0 km/h 94 % 0 in /  0.0 mm
06:37 62.1 °F /  16.7 °C 60.3 °F /  15.7 °C 30.2 in /  1021.6 hPa SW 1 mph /  1.6 km/h 5 mph /  8.0 km/h 94 % 0 in /  0.0 mm
06:42 61.9 °F /  16.6 °C 60.1 °F /  15.6 °C 30.2 in /  1021.6 hPa WSW 1 mph /  1.6 km/h 5 mph /  8.0 km/h 94 % 0 in /  0.0 mm
06:47 61.9 °F /  16.6 °C 60.1 °F /  15.6 °C 30.2 in /  1021.6 hPa Calm   5 mph /  8.0 km/h 94 % 0 in /  0.0 mm
06:57 61.9 °F /  16.6 °C 60.4 °F /  15.8 °C 30.2 in /  1021.6 hPa WSW 1 mph /  1.6 km/h 3 mph /  4.8 km/h 95 % 0 in /  0.0 mm
07:07 61.7 °F /  16.5 °C 60.3 °F /  15.7 °C 30.2 in /  1021.6 hPa Calm   3 mph /  4.8 km/h 95 % 0 in /  0.0 mm
07:12 61.7 °F /  16.5 °C 60.3 °F /  15.7 °C 30.2 in /  1021.6 hPa WNW 1 mph /  1.6 km/h 2 mph /  3.2 km/h 95 % 0 in /  0.0 mm
07:17 61.7 °F /  16.5 °C 60.3 °F /  15.7 °C 30.2 in /  1021.6 hPa WNW 1 mph /  1.6 km/h 2 mph /  3.2 km/h 95 % 0 in /  0.0 mm
07:22 61.9 °F /  16.6 °C 60.4 °F /  15.8 °C 30.2 in /  1021.9 hPa Calm   2 mph /  3.2 km/h 95 % 0 in /  0.0 mm
07:27 61.7 °F /  16.5 °C 60.3 °F /  15.7 °C 30.2 in /  1021.9 hPa Calm   2 mph /  3.2 km/h 95 % 0.02 in /  0.5 mm
07:32 61.7 °F /  16.5 °C 60.3 °F /  15.7 °C 30.2 in /  1021.6 hPa Calm   1 mph /  1.6 km/h 95 % 0.02 in /  0.5 mm
07:42 61.7 °F /  16.5 °C 60.3 °F /  15.7 °C 30.2 in /  1021.9 hPa Calm   1 mph /  1.6 km/h 95 % 0.02 in /  0.5 mm
07:47 61.7 °F /  16.5 °C 60.3 °F /  15.7 °C 30.2 in /  1021.9 hPa WNW 1 mph /  1.6 km/h 2 mph /  3.2 km/h 95 % 0.02 in /  0.5 mm
07:52 61.7 °F /  16.5 °C 60.3 °F /  15.7 °C 30.2 in /  1021.9 hPa NNW 2 mph /  3.2 km/h 2 mph /  3.2 km/h 95 % 0.02 in /  0.5 mm
07:57 61.7 °F /  16.5 °C 60.3 °F /  15.7 °C 30.2 in /  1021.9 hPa NW 1 mph /  1.6 km/h 2 mph /  3.2 km/h 95 % 0.02 in /  0.5 mm
08:02 61.9 °F /  16.6 °C 60.8 °F /  16.0 °C 30.2 in /  1021.9 hPa NNW 1 mph /  1.6 km/h 4 mph /  6.4 km/h 96 % 0.02 in /  0.5 mm
08:12 61.7 °F /  16.5 °C 60.6 °F /  15.9 °C 30.2 in /  1021.9 hPa Calm   4 mph /  6.4 km/h 96 % 0.02 in /  0.5 mm
08:17 61.7 °F /  16.5 °C 60.6 °F /  15.9 °C 30.2 in /  1021.9 hPa Calm   4 mph /  6.4 km/h 96 % 0.02 in /  0.5 mm
08:22 61.5 °F /  16.4 °C 60.1 °F /  15.6 °C 30.2 in /  1021.9 hPa North 2 mph /  3.2 km/h 4 mph /  6.4 km/h 95 % 0.02 in /  0.5 mm
08:32 61.3 °F /  16.3 °C 59.9 °F /  15.5 °C 30.2 in /  1022.2 hPa WNW 1 mph /  1.6 km/h 7 mph /  11.3 km/h 95 % 0.01 in /  0.3 mm
08:37 61.2 °F /  16.2 °C 59.7 °F /  15.4 °C 30.2 in /  1022.2 hPa North 5 mph /  8.0 km/h 7 mph /  11.3 km/h 95 % 0.01 in /  0.3 mm
08:42 61 °F /  16.1 °C 59.5 °F /  15.3 °C 30.2 in /  1022.2 hPa NNE 3 mph /  4.8 km/h 5 mph /  8.0 km/h 95 % 0.01 in /  0.3 mm
08:47 60.8 °F /  16.0 °C 59.4 °F /  15.2 °C 30.2 in /  1022.2 hPa NNW 3 mph /  4.8 km/h 6 mph /  9.7 km/h 95 % 0 in /  0.0 mm
08:52 60.6 °F /  15.9 °C 59.2 °F /  15.1 °C 30.2 in /  1022.2 hPa NW 1 mph /  1.6 km/h 6 mph /  9.7 km/h 95 % 0 in /  0.0 mm
08:57 60.6 °F /  15.9 °C 59.2 °F /  15.1 °C 30.2 in /  1022.2 hPa NNW 3 mph /  4.8 km/h 6 mph /  9.7 km/h 95 % 0 in /  0.0 mm
09:02 60.4 °F /  15.8 °C 58.6 °F /  14.8 °C 30.2 in /  1022.2 hPa NW 1 mph /  1.6 km/h 6 mph /  9.7 km/h 94 % 0 in /  0.0 mm
09:12 60.4 °F /  15.8 °C 58.6 °F /  14.8 °C 30.2 in /  1022.6 hPa Calm   5 mph /  8.0 km/h 94 % 0 in /  0.0 mm
09:17 60.4 °F /  15.8 °C 58.6 °F /  14.8 °C 30.2 in /  1022.6 hPa NW 1 mph /  1.6 km/h 4 mph /  6.4 km/h 94 % 0 in /  0.0 mm
09:22 60.4 °F /  15.8 °C 58.6 °F /  14.8 °C 30.2 in /  1022.6 hPa WNW 1 mph /  1.6 km/h 4 mph /  6.4 km/h 94 % 0 in /  0.0 mm
09:27 60.3 °F /  15.7 °C 58.5 °F /  14.7 °C 30.2 in /  1022.6 hPa West 2 mph /  3.2 km/h 4 mph /  6.4 km/h 94 % 0 in /  0.0 mm
09:32 60.3 °F /  15.7 °C 58.5 °F /  14.7 °C 30.2 in /  1022.6 hPa North 1 mph /  1.6 km/h 4 mph /  6.4 km/h 94 % 0 in /  0.0 mm
09:37 60.4 °F /  15.8 °C 58.6 °F /  14.8 °C 30.2 in /  1022.6 hPa NNW 1 mph /  1.6 km/h 4 mph /  6.4 km/h 94 % 0 in /  0.0 mm
09:42 60.4 °F /  15.8 °C 58.6 °F /  14.8 °C 30.2 in /  1022.2 hPa NNE 3 mph /  4.8 km/h 4 mph /  6.4 km/h 94 % 0 in /  0.0 mm
09:47 60.4 °F /  15.8 °C 58.6 °F /  14.8 °C 30.2 in /  1022.6 hPa NNW 3 mph /  4.8 km/h 4 mph /  6.4 km/h 94 % 0 in /  0.0 mm
09:52 60.8 °F /  16.0 °C 59 °F /  15.0 °C 30.2 in /  1022.6 hPa NNW 1 mph /  1.6 km/h 5 mph /  8.0 km/h 94 % 0 in /  0.0 mm
09:57 61 °F /  16.1 °C 59.2 °F /  15.1 °C 30.2 in /  1022.6 hPa North 3 mph /  4.8 km/h 5 mph /  8.0 km/h 94 % 0 in /  0.0 mm
10:02 61.3 °F /  16.3 °C 59.5 °F /  15.3 °C 30.2 in /  1022.6 hPa NE 2 mph /  3.2 km/h 5 mph /  8.0 km/h 94 % 0 in /  0.0 mm
10:07 61.5 °F /  16.4 °C 59.5 °F /  15.3 °C 30.2 in /  1022.9 hPa Calm   5 mph /  8.0 km/h 93 % 0 in /  0.0 mm
10:12 61.3 °F /  16.3 °C 59 °F /  15.0 °C 30.2 in /  1022.9 hPa North 2 mph /  3.2 km/h 5 mph /  8.0 km/h 92 % 0 in /  0.0 mm
10:17 61.5 °F /  16.4 °C 59.5 °F /  15.3 °C 30.2 in /  1022.9 hPa WNW 1 mph /  1.6 km/h 5 mph /  8.0 km/h 93 % 0 in /  0.0 mm
10:22 61.7 °F /  16.5 °C 59.4 °F /  15.2 °C 30.2 in /  1022.9 hPa NW 2 mph /  3.2 km/h 5 mph /  8.0 km/h 92 % 0 in /  0.0 mm
10:32 61.7 °F /  16.5 °C 59 °F /  15.0 °C 30.2 in /  1022.9 hPa WNW 5 mph /  8.0 km/h 5 mph /  8.0 km/h 91 % 0 in /  0.0 mm
10:42 61.9 °F /  16.6 °C 59.5 °F /  15.3 °C 30.2 in /  1023.2 hPa NW 2 mph /  3.2 km/h 6 mph /  9.7 km/h 92 % 0 in /  0.0 mm
10:52 61.7 °F /  16.5 °C 59 °F /  15.0 °C 30.2 in /  1023.2 hPa NNW 5 mph /  8.0 km/h 6 mph /  9.7 km/h 91 % 0 in /  0.0 mm
11:02 61.9 °F /  16.6 °C 59.5 °F /  15.3 °C 30.2 in /  1022.9 hPa NE 3 mph /  4.8 km/h 8 mph /  12.9 km/h 92 % 0 in /  0.0 mm
11:12 61.9 °F /  16.6 °C 59.2 °F /  15.1 °C 30.2 in /  1023.2 hPa North 6 mph /  9.7 km/h 7 mph /  11.3 km/h 91 % 0 in /  0.0 mm
11:17 61.9 °F /  16.6 °C 59.2 °F /  15.1 °C 30.2 in /  1023.2 hPa NNE 3 mph /  4.8 km/h 7 mph /  11.3 km/h 91 % 0 in /  0.0 mm
11:27 62.2 °F /  16.8 °C 58.6 °F /  14.8 °C 30.2 in /  1023.2 hPa NW 2 mph /  3.2 km/h 7 mph /  11.3 km/h 88 % 0 in /  0.0 mm
11:32 62.4 °F /  16.9 °C 58.5 °F /  14.7 °C 30.2 in /  1023.2 hPa NE 4 mph /  6.4 km/h 7 mph /  11.3 km/h 87 % 0 in /  0.0 mm
11:42 62.8 °F /  17.1 °C 59.2 °F /  15.1 °C 30.2 in /  1023.2 hPa ENE 2 mph /  3.2 km/h 8 mph /  12.9 km/h 88 % 0 in /  0.0 mm
11:47 63 °F /  17.2 °C 59.4 °F /  15.2 °C 30.2 in /  1023.2 hPa North 4 mph /  6.4 km/h 8 mph /  12.9 km/h 88 % 0 in /  0.0 mm
11:52 63.3 °F /  17.4 °C 59.7 °F /  15.4 °C 30.2 in /  1023.2 hPa Calm   7 mph /  11.3 km/h 88 % 0 in /  0.0 mm
11:57 63.9 °F /  17.7 °C 59.5 °F /  15.3 °C 30.2 in /  1023.2 hPa NNE 3 mph /  4.8 km/h 7 mph /  11.3 km/h 86 % 0 in /  0.0 mm
12:02 63.7 °F /  17.6 °C 58.8 °F /  14.9 °C 30.2 in /  1023.2 hPa North 1 mph /  1.6 km/h 7 mph /  11.3 km/h 84 % 0 in /  0.0 mm
12:12 64.4 °F /  18.0 °C 59.2 °F /  15.1 °C 30.2 in /  1023.2 hPa NE 2 mph /  3.2 km/h 6 mph /  9.7 km/h 83 % 0 in /  0.0 mm
12:17 65.1 °F /  18.4 °C 59.5 °F /  15.3 °C 30.2 in /  1023.2 hPa NNE 3 mph /  4.8 km/h 8 mph /  12.9 km/h 82 % 0 in /  0.0 mm
12:22 65.7 °F /  18.7 °C 58.6 °F /  14.8 °C 30.2 in /  1023.2 hPa NE 4 mph /  6.4 km/h 8 mph /  12.9 km/h 78 % 0 in /  0.0 mm
12:27 66 °F /  18.9 °C 59 °F /  15.0 °C 30.2 in /  1023.2 hPa NNE 4 mph /  6.4 km/h 8 mph /  12.9 km/h 78 % 0 in /  0.0 mm
12:32 66.7 °F /  19.3 °C 59.4 °F /  15.2 °C 30.2 in /  1023.2 hPa East 1 mph /  1.6 km/h 8 mph /  12.9 km/h 77 % 0 in /  0.0 mm
12:37 66.7 °F /  19.3 °C 59 °F /  15.0 °C 30.2 in /  1022.9 hPa Calm   8 mph /  12.9 km/h 76 % 0 in /  0.0 mm
12:42 67.3 °F /  19.6 °C 59 °F /  15.0 °C 30.2 in /  1022.9 hPa NW 4 mph /  6.4 km/h 6 mph /  9.7 km/h 75 % 0 in /  0.0 mm
12:47 67.5 °F /  19.7 °C 59.5 °F /  15.3 °C 30.2 in /  1022.9 hPa North 2 mph /  3.2 km/h 6 mph /  9.7 km/h 76 % 0 in /  0.0 mm
12:52 68.2 °F /  20.1 °C 59.5 °F /  15.3 °C 30.2 in /  1022.9 hPa WNW 1 mph /  1.6 km/h 6 mph /  9.7 km/h 74 % 0 in /  0.0 mm
12:57 68.7 °F /  20.4 °C 59.4 °F /  15.2 °C 30.2 in /  1022.9 hPa NNW 5 mph /  8.0 km/h 6 mph /  9.7 km/h 72 % 0 in /  0.0 mm
13:02 68.2 °F /  20.1 °C 58.8 °F /  14.9 °C 30.2 in /  1022.9 hPa WNW 1 mph /  1.6 km/h 6 mph /  9.7 km/h 72 % 0 in /  0.0 mm
13:07 68.2 °F /  20.1 °C 58.8 °F /  14.9 °C 30.2 in /  1022.6 hPa NE 5 mph /  8.0 km/h 6 mph /  9.7 km/h 72 % 0 in /  0.0 mm
13:12 68.4 °F /  20.2 °C 59 °F /  15.0 °C 30.2 in /  1022.6 hPa NW 3 mph /  4.8 km/h 7 mph /  11.3 km/h 72 % 0 in /  0.0 mm
13:17 69.3 °F /  20.7 °C 59.5 °F /  15.3 °C 30.2 in /  1022.6 hPa NNE 1 mph /  1.6 km/h 9 mph /  14.5 km/h 71 % 0 in /  0.0 mm
13:27 69.1 °F /  20.6 °C 59.4 °F /  15.2 °C 30.2 in /  1022.6 hPa NW 1 mph /  1.6 km/h 9 mph /  14.5 km/h 71 % 0 in /  0.0 mm
13:32 69.4 °F /  20.8 °C 59.2 °F /  15.1 °C 30.2 in /  1022.6 hPa North 6 mph /  9.7 km/h 9 mph /  14.5 km/h 70 % 0 in /  0.0 mm
13:42 70 °F /  21.1 °C 59.7 °F /  15.4 °C 30.2 in /  1022.6 hPa North 3 mph /  4.8 km/h 8 mph /  12.9 km/h 70 % 0 in /  0.0 mm
13:47 70.2 °F /  21.2 °C 59.5 °F /  15.3 °C 30.2 in /  1022.6 hPa WSW 1 mph /  1.6 km/h 6 mph /  9.7 km/h 69 % 0 in /  0.0 mm
13:52 70 °F /  21.1 °C 58.5 °F /  14.7 °C 30.2 in /  1022.6 hPa NW 2 mph /  3.2 km/h 6 mph /  9.7 km/h 67 % 0 in /  0.0 mm
13:57 69.6 °F /  20.9 °C 57.4 °F /  14.1 °C 30.2 in /  1022.6 hPa Calm   6 mph /  9.7 km/h 65 % 0 in /  0.0 mm
14:02 70.3 °F /  21.3 °C 58.1 °F /  14.5 °C 30.2 in /  1022.2 hPa NE 2 mph /  3.2 km/h 6 mph /  9.7 km/h 65 % 0 in /  0.0 mm
14:07 70.9 °F /  21.6 °C 59 °F /  15.0 °C 30.2 in /  1022.2 hPa WNW 3 mph /  4.8 km/h 6 mph /  9.7 km/h 66 % 0 in /  0.0 mm
14:12 70.2 °F /  21.2 °C 58.3 °F /  14.6 °C 30.2 in /  1022.2 hPa NNW 2 mph /  3.2 km/h 6 mph /  9.7 km/h 66 % 0 in /  0.0 mm
14:17 70 °F /  21.1 °C 58.1 °F /  14.5 °C 30.2 in /  1022.6 hPa Calm   6 mph /  9.7 km/h 66 % 0 in /  0.0 mm
14:22 70.2 °F /  21.2 °C 57.9 °F /  14.4 °C 30.2 in /  1022.2 hPa NW 2 mph /  3.2 km/h 7 mph /  11.3 km/h 65 % 0 in /  0.0 mm
14:32 70 °F /  21.1 °C 58.1 °F /  14.5 °C 30.2 in /  1022.2 hPa ENE 4 mph /  6.4 km/h 7 mph /  11.3 km/h 66 % 0 in /  0.0 mm
14:37 69.8 °F /  21.0 °C 57.9 °F /  14.4 °C 30.2 in /  1022.2 hPa NNE 5 mph /  8.0 km/h 7 mph /  11.3 km/h 66 % 0 in /  0.0 mm
14:42 70.2 °F /  21.2 °C 58.3 °F /  14.6 °C 30.2 in /  1022.2 hPa NNE 2 mph /  3.2 km/h 8 mph /  12.9 km/h 66 % 0 in /  0.0 mm
14:52 70.9 °F /  21.6 °C 58.1 °F /  14.5 °C 30.2 in /  1022.2 hPa West 1 mph /  1.6 km/h 7 mph /  11.3 km/h 64 % 0 in /  0.0 mm
14:57 70.9 °F /  21.6 °C 58.1 °F /  14.5 °C 30.2 in /  1022.2 hPa NW 2 mph /  3.2 km/h 7 mph /  11.3 km/h 64 % 0 in /  0.0 mm
15:02 71.2 °F /  21.8 °C 58.5 °F /  14.7 °C 30.2 in /  1022.2 hPa Calm   7 mph /  11.3 km/h 64 % 0 in /  0.0 mm
15:07 71.4 °F /  21.9 °C 58.1 °F /  14.5 °C 30.2 in /  1022.2 hPa ENE 2 mph /  3.2 km/h 5 mph /  8.0 km/h 63 % 0 in /  0.0 mm
15:12 71.4 °F /  21.9 °C 58.1 °F /  14.5 °C 30.2 in /  1022.2 hPa NE 1 mph /  1.6 km/h 9 mph /  14.5 km/h 63 % 0 in /  0.0 mm
15:22 70.5 °F /  21.4 °C 57.7 °F /  14.3 °C 30.2 in /  1021.9 hPa West 2 mph /  3.2 km/h 10 mph /  16.1 km/h 64 % 0 in /  0.0 mm
15:32 70.7 °F /  21.5 °C 57.9 °F /  14.4 °C 30.2 in /  1021.9 hPa ENE 3 mph /  4.8 km/h 8 mph /  12.9 km/h 64 % 0 in /  0.0 mm
15:37 70.7 °F /  21.5 °C 57.6 °F /  14.2 °C 30.2 in /  1021.9 hPa ENE 2 mph /  3.2 km/h 5 mph /  8.0 km/h 63 % 0 in /  0.0 mm
15:42 70.9 °F /  21.6 °C 58.5 °F /  14.7 °C 30.2 in /  1021.9 hPa NE 2 mph /  3.2 km/h 4 mph /  6.4 km/h 65 % 0 in /  0.0 mm
15:47 71.2 °F /  21.8 °C 57.6 °F /  14.2 °C 30.2 in /  1021.9 hPa NE 7 mph /  11.3 km/h 7 mph /  11.3 km/h 62 % 0 in /  0.0 mm
15:52 71.1 °F /  21.7 °C 58.3 °F /  14.6 °C 30.2 in /  1021.9 hPa Calm   7 mph /  11.3 km/h 64 % 0 in /  0.0 mm
15:57 71.1 °F /  21.7 °C 57.4 °F /  14.1 °C 30.2 in /  1021.9 hPa NW 1 mph /  1.6 km/h 7 mph /  11.3 km/h 62 % 0 in /  0.0 mm
16:02 71.4 °F /  21.9 °C 57.7 °F /  14.3 °C 30.2 in /  1021.9 hPa SW 1 mph /  1.6 km/h 7 mph /  11.3 km/h 62 % 0 in /  0.0 mm
16:07 72 °F /  22.2 °C 57.4 °F /  14.1 °C 30.2 in /  1021.9 hPa Calm   4 mph /  6.4 km/h 60 % 0 in /  0.0 mm
16:12 72.3 °F /  22.4 °C 57.7 °F /  14.3 °C 30.2 in /  1021.9 hPa North 2 mph /  3.2 km/h 3 mph /  4.8 km/h 60 % 0 in /  0.0 mm
16:17 72.3 °F /  22.4 °C 59.5 °F /  15.3 °C 30.2 in /  1021.9 hPa NNW 2 mph /  3.2 km/h 7 mph /  11.3 km/h 64 % 0 in /  0.0 mm
16:22 72 °F /  22.2 °C 59.2 °F /  15.1 °C 30.2 in /  1021.6 hPa NW 3 mph /  4.8 km/h 7 mph /  11.3 km/h 64 % 0 in /  0.0 mm
16:27 71.8 °F /  22.1 °C 59 °F /  15.0 °C 30.2 in /  1021.6 hPa NW 2 mph /  3.2 km/h 7 mph /  11.3 km/h 64 % 0 in /  0.0 mm
16:32 71.4 °F /  21.9 °C 58.6 °F /  14.8 °C 30.2 in /  1021.6 hPa West 2 mph /  3.2 km/h 4 mph /  6.4 km/h 64 % 0 in /  0.0 mm
16:37 71.6 °F /  22.0 °C 57.9 °F /  14.4 °C 30.2 in /  1021.6 hPa West 2 mph /  3.2 km/h 4 mph /  6.4 km/h 62 % 0 in /  0.0 mm
16:42 72.1 °F /  22.3 °C 57.9 °F /  14.4 °C 30.2 in /  1021.6 hPa NW 2 mph /  3.2 km/h 4 mph /  6.4 km/h 61 % 0 in /  0.0 mm
16:52 72.1 °F /  22.3 °C 57.6 °F /  14.2 °C 30.2 in /  1021.6 hPa Calm   5 mph /  8.0 km/h 60 % 0 in /  0.0 mm
16:57 72.7 °F /  22.6 °C 57 °F /  13.9 °C 30.2 in /  1021.6 hPa Calm   5 mph /  8.0 km/h 58 % 0 in /  0.0 mm
17:02 73 °F /  22.8 °C 56.8 °F /  13.8 °C 30.2 in /  1021.6 hPa Calm   5 mph /  8.0 km/h 57 % 0 in /  0.0 mm
17:07 72.9 °F /  22.7 °C 57.2 °F /  14.0 °C 30.2 in /  1021.6 hPa NW 3 mph /  4.8 km/h 3 mph /  4.8 km/h 58 % 0 in /  0.0 mm
17:12 72.5 °F /  22.5 °C 57.4 °F /  14.1 °C 30.2 in /  1021.6 hPa Calm   7 mph /  11.3 km/h 59 % 0 in /  0.0 mm
17:17 72.1 °F /  22.3 °C 57.6 °F /  14.2 °C 30.2 in /  1021.6 hPa NW 4 mph /  6.4 km/h 7 mph /  11.3 km/h 60 % 0 in /  0.0 mm
17:22 72.3 °F /  22.4 °C 57.2 °F /  14.0 °C 30.2 in /  1021.6 hPa Calm   7 mph /  11.3 km/h 59 % 0 in /  0.0 mm
17:27 72.9 °F /  22.7 °C 57.2 °F /  14.0 °C 30.2 in /  1021.6 hPa Calm   6 mph /  9.7 km/h 58 % 0 in /  0.0 mm
17:32 72.3 °F /  22.4 °C 57.2 °F /  14.0 °C 30.2 in /  1021.6 hPa North 2 mph /  3.2 km/h 6 mph /  9.7 km/h 59 % 0 in /  0.0 mm
17:37 72.3 °F /  22.4 °C 57.2 °F /  14.0 °C 30.2 in /  1021.6 hPa North 1 mph /  1.6 km/h 6 mph /  9.7 km/h 59 % 0 in /  0.0 mm
17:42 72.9 °F /  22.7 °C 57.7 °F /  14.3 °C 30.2 in /  1021.6 hPa NNW 3 mph /  4.8 km/h 6 mph /  9.7 km/h 59 % 0 in /  0.0 mm
17:52 72.7 °F /  22.6 °C 57 °F /  13.9 °C 30.2 in /  1021.2 hPa WNW 2 mph /  3.2 km/h 7 mph /  11.3 km/h 58 % 0 in /  0.0 mm
17:57 73.2 °F /  22.9 °C 57.6 °F /  14.2 °C 30.2 in /  1021.2 hPa NW 2 mph /  3.2 km/h 7 mph /  11.3 km/h 58 % 0 in /  0.0 mm
18:02 73.4 °F /  23.0 °C 56.7 °F /  13.7 °C 30.2 in /  1021.2 hPa West 3 mph /  4.8 km/h 7 mph /  11.3 km/h 56 % 0 in /  0.0 mm
18:07 73.2 °F /  22.9 °C 56.7 °F /  13.7 °C 30.2 in /  1021.2 hPa SW 1 mph /  1.6 km/h 7 mph /  11.3 km/h 56 % 0 in /  0.0 mm
18:12 73.8 °F /  23.2 °C 57.6 °F /  14.2 °C 30.2 in /  1021.2 hPa NW 3 mph /  4.8 km/h 7 mph /  11.3 km/h 57 % 0 in /  0.0 mm
18:17 74.1 °F /  23.4 °C 57.9 °F /  14.4 °C 30.2 in /  1021.2 hPa NNW 1 mph /  1.6 km/h 7 mph /  11.3 km/h 57 % 0 in /  0.0 mm
18:22 73.9 °F /  23.3 °C 57.2 °F /  14.0 °C 30.2 in /  1021.2 hPa NNE 4 mph /  6.4 km/h 6 mph /  9.7 km/h 56 % 0 in /  0.0 mm
18:27 73.6 °F /  23.1 °C 58.3 °F /  14.6 °C 30.2 in /  1021.2 hPa NE 4 mph /  6.4 km/h 6 mph /  9.7 km/h 59 % 0 in /  0.0 mm
18:32 72.9 °F /  22.7 °C 58.1 °F /  14.5 °C 30.2 in /  1020.9 hPa NE 5 mph /  8.0 km/h 5 mph /  8.0 km/h 60 % 0 in /  0.0 mm
18:42 72.9 °F /  22.7 °C 58.1 °F /  14.5 °C 30.2 in /  1021.2 hPa NNE 2 mph /  3.2 km/h 8 mph /  12.9 km/h 60 % 0 in /  0.0 mm
18:52 72.3 °F /  22.4 °C 58.1 °F /  14.5 °C 30.2 in /  1020.9 hPa ENE 5 mph /  8.0 km/h 7 mph /  11.3 km/h 61 % 0 in /  0.0 mm
18:57 72.1 °F /  22.3 °C 58.5 °F /  14.7 °C 30.2 in /  1020.9 hPa ENE 4 mph /  6.4 km/h 7 mph /  11.3 km/h 62 % 0 in /  0.0 mm
19:02 72.1 °F /  22.3 °C 58.5 °F /  14.7 °C 30.2 in /  1020.9 hPa ENE 3 mph /  4.8 km/h 7 mph /  11.3 km/h 62 % 0 in /  0.0 mm
19:12 72.3 °F /  22.4 °C 58.1 °F /  14.5 °C 30.2 in /  1020.9 hPa ENE 3 mph /  4.8 km/h 6 mph /  9.7 km/h 61 % 0 in /  0.0 mm
19:17 71.8 °F /  22.1 °C 58.1 °F /  14.5 °C 30.2 in /  1020.9 hPa NNE 5 mph /  8.0 km/h 6 mph /  9.7 km/h 62 % 0 in /  0.0 mm
19:22 71.4 °F /  21.9 °C 57.7 °F /  14.3 °C 30.2 in /  1020.9 hPa NE 4 mph /  6.4 km/h 6 mph /  9.7 km/h 62 % 0 in /  0.0 mm
19:27 71.2 °F /  21.8 °C 57.9 °F /  14.4 °C 30.2 in /  1020.9 hPa NNE 5 mph /  8.0 km/h 8 mph /  12.9 km/h 63 % 0 in /  0.0 mm
19:32 71.4 °F /  21.9 °C 57.7 °F /  14.3 °C 30.2 in /  1020.9 hPa NNE 3 mph /  4.8 km/h 8 mph /  12.9 km/h 62 % 0 in /  0.0 mm
19:42 71.6 °F /  22.0 °C 58.3 °F /  14.6 °C 30.2 in /  1020.9 hPa NE 4 mph /  6.4 km/h 7 mph /  11.3 km/h 63 % 0 in /  0.0 mm
19:47 71.4 °F /  21.9 °C 57.7 °F /  14.3 °C 30.2 in /  1020.9 hPa NNE 5 mph /  8.0 km/h 8 mph /  12.9 km/h 62 % 0 in /  0.0 mm
19:52 71.2 °F /  21.8 °C 57.6 °F /  14.2 °C 30.2 in /  1020.9 hPa North 6 mph /  9.7 km/h 8 mph /  12.9 km/h 62 % 0 in /  0.0 mm
20:02 71.1 °F /  21.7 °C 58.3 °F /  14.6 °C 30.2 in /  1020.9 hPa ENE 2 mph /  3.2 km/h 9 mph /  14.5 km/h 64 % 0 in /  0.0 mm
20:12 70.3 °F /  21.3 °C 57.6 °F /  14.2 °C 30.2 in /  1020.9 hPa NE 4 mph /  6.4 km/h 10 mph /  16.1 km/h 64 % 0 in /  0.0 mm
20:17 70.2 °F /  21.2 °C 57.9 °F /  14.4 °C 30.2 in /  1020.9 hPa NE 6 mph /  9.7 km/h 10 mph /  16.1 km/h 65 % 0 in /  0.0 mm
20:22 69.8 °F /  21.0 °C 57.6 °F /  14.2 °C 30.2 in /  1020.9 hPa NE 4 mph /  6.4 km/h 8 mph /  12.9 km/h 65 % 0 in /  0.0 mm
20:32 69.3 °F /  20.7 °C 57.9 °F /  14.4 °C 30.2 in /  1020.9 hPa NE 4 mph /  6.4 km/h 8 mph /  12.9 km/h 67 % 0 in /  0.0 mm
20:37 69.1 °F /  20.6 °C 57.7 °F /  14.3 °C 30.2 in /  1021.2 hPa NE 3 mph /  4.8 km/h 8 mph /  12.9 km/h 67 % 0 in /  0.0 mm
20:42 68.7 °F /  20.4 °C 57.7 °F /  14.3 °C 30.2 in /  1021.2 hPa NE 4 mph /  6.4 km/h 6 mph /  9.7 km/h 68 % 0 in /  0.0 mm
20:47 68.5 °F /  20.3 °C 57.9 °F /  14.4 °C 30.2 in /  1021.2 hPa NE 2 mph /  3.2 km/h 6 mph /  9.7 km/h 69 % 0 in /  0.0 mm
20:52 68.2 °F /  20.1 °C 58.1 °F /  14.5 °C 30.2 in /  1021.2 hPa NE 2 mph /  3.2 km/h 6 mph /  9.7 km/h 70 % 0 in /  0.0 mm
20:57 67.5 °F /  19.7 °C 57.7 °F /  14.3 °C 30.2 in /  1021.2 hPa NE 2 mph /  3.2 km/h 6 mph /  9.7 km/h 71 % 0 in /  0.0 mm
21:02 66.9 °F /  19.4 °C 57.6 °F /  14.2 °C 30.2 in /  1021.2 hPa NE 3 mph /  4.8 km/h 4 mph /  6.4 km/h 72 % 0 in /  0.0 mm
21:12 66.6 °F /  19.2 °C 58.1 °F /  14.5 °C 30.2 in /  1021.2 hPa NNE 1 mph /  1.6 km/h 4 mph /  6.4 km/h 74 % 0 in /  0.0 mm
21:17 66 °F /  18.9 °C 57.9 °F /  14.4 °C 30.2 in /  1021.2 hPa Calm   4 mph /  6.4 km/h 75 % 0 in /  0.0 mm
21:22 65.7 °F /  18.7 °C 57.6 °F /  14.2 °C 30.2 in /  1021.2 hPa North 1 mph /  1.6 km/h 3 mph /  4.8 km/h 75 % 0 in /  0.0 mm
21:27 65.5 °F /  18.6 °C 57.7 °F /  14.3 °C 30.2 in /  1021.2 hPa Calm   2 mph /  3.2 km/h 76 % 0 in /  0.0 mm
21:32 65.1 °F /  18.4 °C 57.7 °F /  14.3 °C 30.2 in /  1021.2 hPa NNW 1 mph /  1.6 km/h 3 mph /  4.8 km/h 77 % 0 in /  0.0 mm
21:37 64.8 °F /  18.2 °C 57.4 °F /  14.1 °C 30.2 in /  1021.2 hPa Calm   3 mph /  4.8 km/h 77 % 0 in /  0.0 mm
21:42 64.6 °F /  18.1 °C 57.2 °F /  14.0 °C 30.2 in /  1021.2 hPa North 1 mph /  1.6 km/h 3 mph /  4.8 km/h 77 % 0 in /  0.0 mm
21:47 64.4 °F /  18.0 °C 57.4 °F /  14.1 °C 30.2 in /  1021.2 hPa NNW 2 mph /  3.2 km/h 3 mph /  4.8 km/h 78 % 0 in /  0.0 mm
21:52 64.2 °F /  17.9 °C 57.2 °F /  14.0 °C 30.2 in /  1021.6 hPa NNE 1 mph /  1.6 km/h 4 mph /  6.4 km/h 78 % 0 in /  0.0 mm
21:57 64 °F /  17.8 °C 57 °F /  13.9 °C 30.2 in /  1021.6 hPa Calm   4 mph /  6.4 km/h 78 % 0 in /  0.0 mm
22:02 63.7 °F /  17.6 °C 57 °F /  13.9 °C 30.2 in /  1021.6 hPa Calm   3 mph /  4.8 km/h 79 % 0 in /  0.0 mm
22:07 63.1 °F /  17.3 °C 56.8 °F /  13.8 °C 30.2 in /  1021.6 hPa North 1 mph /  1.6 km/h 2 mph /  3.2 km/h 80 % 0 in /  0.0 mm
22:12 63 °F /  17.2 °C 56.7 °F /  13.7 °C 30.2 in /  1021.6 hPa Calm   2 mph /  3.2 km/h 80 % 0 in /  0.0 mm
22:17 62.8 °F /  17.1 °C 56.8 °F /  13.8 °C 30.2 in /  1021.6 hPa Calm   2 mph /  3.2 km/h 81 % 0 in /  0.0 mm
22:27 62.2 °F /  16.8 °C 56.7 °F /  13.7 °C 30.2 in /  1021.6 hPa Calm   2 mph /  3.2 km/h 82 % 0 in /  0.0 mm
22:32 62.1 °F /  16.7 °C 56.5 °F /  13.6 °C 30.2 in /  1021.6 hPa NNE 1 mph /  1.6 km/h 2 mph /  3.2 km/h 82 % 0 in /  0.0 mm
22:37 62.1 °F /  16.7 °C 56.5 °F /  13.6 °C 30.2 in /  1021.6 hPa Calm   2 mph /  3.2 km/h 82 % 0 in /  0.0 mm
22:42 61.9 °F /  16.6 °C 56.7 °F /  13.7 °C 30.2 in /  1021.6 hPa Calm   1 mph /  1.6 km/h 83 % 0 in /  0.0 mm
22:52 61.3 °F /  16.3 °C 56.5 °F /  13.6 °C 30.2 in /  1021.6 hPa Calm   1 mph /  1.6 km/h 84 % 0 in /  0.0 mm
22:57 61.2 °F /  16.2 °C 56.3 °F /  13.5 °C 30.2 in /  1021.6 hPa Calm   1 mph /  1.6 km/h 84 % 0 in /  0.0 mm
23:02 61 °F /  16.1 °C 56.5 °F /  13.6 °C 30.2 in /  1021.6 hPa Calm   1 mph /  1.6 km/h 85 % 0 in /  0.0 mm
23:07 60.6 °F /  15.9 °C 56.1 °F /  13.4 °C 30.2 in /  1021.6 hPa Calm   1 mph /  1.6 km/h 85 % 0 in /  0.0 mm
23:12 60.4 °F /  15.8 °C 55.9 °F /  13.3 °C 30.2 in /  1021.6 hPa Calm   1 mph /  1.6 km/h 85 % 0 in /  0.0 mm
23:17 60.4 °F /  15.8 °C 55.9 °F /  13.3 °C 30.2 in /  1021.6 hPa Calm   1 mph /  1.6 km/h 85 % 0 in /  0.0 mm
23:22 60.3 °F /  15.7 °C 55.8 °F /  13.2 °C 30.2 in /  1021.6 hPa Calm   1 mph /  1.6 km/h 85 % 0 in /  0.0 mm
23:32 60.3 °F /  15.7 °C 56.1 °F /  13.4 °C 30.2 in /  1021.6 hPa Calm   1 mph /  1.6 km/h 86 % 0 in /  0.0 mm
23:37 60.3 °F /  15.7 °C 55.8 °F /  13.2 °C 30.2 in /  1021.6 hPa NNW 1 mph /  1.6 km/h 1 mph /  1.6 km/h 85 % 0 in /  0.0 mm
23:42 60.1 °F /  15.6 °C 55.6 °F /  13.1 °C 30.2 in /  1021.6 hPa NNW 1 mph /  1.6 km/h 1 mph /  1.6 km/h 85 % 0 in /  0.0 mm
23:47 59.9 °F /  15.5 °C 55.8 °F /  13.2 °C 30.2 in /  1021.6 hPa Calm   1 mph /  1.6 km/h 86 % 0 in /  0.0 mm
23:52 59.9 °F /  15.5 °C 55.8 °F /  13.2 °C 30.2 in /  1021.6 hPa Calm   1 mph /  1.6 km/h 86 % 0 in /  0.0 mm
23:57 59.9 °F /  15.5 °C 55.8 °F /  13.2 °C 30.2 in /  1021.6 hPa Calm   1 mph /  1.6 km/h 86 % 0 in /  0.0 mm
Meteo18
Compliments of Weather Underground - 4 mb

Script developed by  Jim McMurry - jmcmurry@mwt.net Adapted for the template by  Wim van der Kuil - Leuven-Template.eu

You find our weather info also at:

European Weather Network

Weather Underground

Equipment we use:

Weather-station
Davis Vue

Weather-program
Meteohub

Weather-server
Raspberry PI 2 B+

Provider
1 and 1

Davis Vue

Meteohub

Raspberry PI 2 B+

1 and 1